CCM28DO EBCI-LFKB
Flight info
| Callsign | CCM28DO |
|---|---|
| Flight time | N/A |
| Altitude | 39000 |
| Route | RITAX UT27 ROUSY DCT GTQ DCT DEVDI DCT ODINA DCT OLETI M858 LIGUR |
| Aircraft | A20N/M-SBDFGIJ1RWY/S |
Departure
| Time | 2026-04-28 17:10 |
|---|---|
| Airport | Brussels South Charleroi Airport (EBCI) |
Arrival
| Time | N/A |
|---|---|
| Airport | Bastia-Poretta International airport (LFKB) |
| Time | Latitude | Longitude | Altitude | Speed | Heading |
|---|---|---|---|---|---|
| 2026-04-28 16:32 | 50.46856 | 4.47041 | 585 ft | 0 kts | 335° |
| 2026-04-28 16:54 | 50.46852 | 4.47044 | 585 ft | 3 kts | 335° |
| 2026-04-28 16:54 | 50.46831 | 4.47060 | 585 ft | 2 kts | 335° |
| 2026-04-28 16:55 | 50.46813 | 4.47079 | 585 ft | 4 kts | 283° |
| 2026-04-28 16:55 | 50.46815 | 4.47118 | 586 ft | 4 kts | 247° |
| 2026-04-28 16:55 | 50.46818 | 4.47129 | 586 ft | 1 kts | 245° |
| 2026-04-28 16:59 | 50.46815 | 4.47117 | 586 ft | 3 kts | 246° |
| 2026-04-28 16:59 | 50.46809 | 4.47097 | 586 ft | 0 kts | 244° |
| 2026-04-28 17:00 | 50.46808 | 4.47096 | 586 ft | 0 kts | 244° |
| 2026-04-28 17:00 | 50.46807 | 4.47092 | 586 ft | 1 kts | 244° |
| 2026-04-28 17:01 | 50.46803 | 4.47079 | 585 ft | 2 kts | 244° |
| 2026-04-28 17:01 | 50.46792 | 4.47042 | 585 ft | 6 kts | 245° |
| 2026-04-28 17:01 | 50.46766 | 4.46952 | 585 ft | 11 kts | 246° |
| 2026-04-28 17:01 | 50.46732 | 4.46836 | 587 ft | 11 kts | 245° |
| 2026-04-28 17:02 | 50.46705 | 4.46742 | 588 ft | 9 kts | 245° |
| 2026-04-28 17:02 | 50.46689 | 4.46686 | 588 ft | 9 kts | 245° |
| 2026-04-28 17:02 | 50.46646 | 4.46551 | 589 ft | 12 kts | 229° |
| 2026-04-28 17:02 | 50.46570 | 4.46561 | 591 ft | 12 kts | 161° |
| 2026-04-28 17:03 | 50.46456 | 4.46280 | 590 ft | 18 kts | 243° |
| 2026-04-28 17:03 | 50.46405 | 4.46113 | 592 ft | 16 kts | 245° |
| 2026-04-28 17:03 | 50.46366 | 4.45978 | 596 ft | 11 kts | 246° |
| 2026-04-28 17:04 | 50.46310 | 4.45783 | 597 ft | 12 kts | 247° |
| 2026-04-28 17:04 | 50.46272 | 4.45646 | 598 ft | 14 kts | 246° |
| 2026-04-28 17:05 | 50.46173 | 4.45311 | 599 ft | 20 kts | 246° |
| 2026-04-28 17:05 | 50.46113 | 4.45098 | 597 ft | 24 kts | 243° |
| 2026-04-28 17:05 | 50.46039 | 4.44850 | 597 ft | 26 kts | 246° |
| 2026-04-28 17:06 | 50.45941 | 4.44520 | 600 ft | 0 kts | 243° |
| 2026-04-28 17:07 | 50.45939 | 4.44516 | 600 ft | 2 kts | 243° |
| 2026-04-28 17:07 | 50.45919 | 4.44460 | 600 ft | 9 kts | 238° |
| 2026-04-28 17:07 | 50.45876 | 4.44364 | 599 ft | 12 kts | 231° |
| 2026-04-28 17:08 | 50.45822 | 4.44257 | 599 ft | 13 kts | 232° |
| 2026-04-28 17:08 | 50.45765 | 4.44142 | 595 ft | 14 kts | 232° |
| 2026-04-28 17:08 | 50.45704 | 4.44026 | 594 ft | 13 kts | 229° |
| 2026-04-28 17:08 | 50.45634 | 4.44003 | 594 ft | 11 kts | 139° |
| 2026-04-28 17:09 | 50.45637 | 4.44089 | 594 ft | 0 kts | 63° |
| 2026-04-28 17:09 | 50.45692 | 4.44270 | 595 ft | 52 kts | 65° |
| 2026-04-28 17:09 | 50.45932 | 4.45096 | 593 ft | 113 kts | 65° |
| 2026-04-28 17:10 | 50.46315 | 4.46441 | 742 ft | 146 kts | 65° |
| 2026-04-28 17:10 | 50.46762 | 4.47927 | 1174 ft | 160 kts | 55° |
| 2026-04-28 17:10 | 50.47534 | 4.49359 | 1480 ft | 184 kts | 50° |
| 2026-04-28 17:10 | 50.48430 | 4.50986 | 1814 ft | 209 kts | 51° |
| 2026-04-28 17:11 | 50.49425 | 4.52808 | 2333 ft | 228 kts | 51° |
| 2026-04-28 17:11 | 50.50479 | 4.54749 | 3063 ft | 237 kts | 51° |
| 2026-04-28 17:11 | 50.51554 | 4.56738 | 3944 ft | 240 kts | 52° |
| 2026-04-28 17:11 | 50.52644 | 4.58763 | 4784 ft | 245 kts | 53° |
| 2026-04-28 17:12 | 50.53732 | 4.60877 | 5516 ft | 252 kts | 56° |
| 2026-04-28 17:12 | 50.54817 | 4.63069 | 6307 ft | 257 kts | 57° |
| 2026-04-28 17:12 | 50.55922 | 4.65332 | 7034 ft | 262 kts | 54° |
| 2026-04-28 17:12 | 50.57044 | 4.67637 | 7778 ft | 268 kts | 57° |
| 2026-04-28 17:13 | 50.58187 | 4.69978 | 8575 ft | 271 kts | 57° |
| 2026-04-28 17:13 | 50.59346 | 4.72341 | 9345 ft | 275 kts | 54° |
| 2026-04-28 17:13 | 50.60531 | 4.74752 | 10069 ft | 280 kts | 57° |
| 2026-04-28 17:13 | 50.61757 | 4.77257 | 10430 ft | 300 kts | 57° |
| 2026-04-28 17:14 | 50.63069 | 4.79950 | 10649 ft | 321 kts | 54° |
| 2026-04-28 17:14 | 50.64343 | 4.82887 | 11182 ft | 326 kts | 68° |
| 2026-04-28 17:14 | 50.64995 | 4.86278 | 11852 ft | 326 kts | 85° |
| 2026-04-28 17:14 | 50.64891 | 4.89847 | 12453 ft | 331 kts | 104° |
| 2026-04-28 17:15 | 50.63997 | 4.93187 | 13144 ft | 335 kts | 122° |
| 2026-04-28 17:15 | 50.62459 | 4.95975 | 13808 ft | 339 kts | 134° |
| 2026-04-28 17:15 | 50.60777 | 4.98618 | 14410 ft | 343 kts | 134° |
| 2026-04-28 17:15 | 50.59081 | 5.01275 | 15043 ft | 345 kts | 134° |
| 2026-04-28 17:16 | 50.57365 | 5.03965 | 15597 ft | 350 kts | 134° |
| 2026-04-28 17:16 | 50.55632 | 5.06678 | 16190 ft | 353 kts | 135° |
| 2026-04-28 17:16 | 50.53884 | 5.09416 | 16809 ft | 355 kts | 135° |
| 2026-04-28 17:16 | 50.52123 | 5.12176 | 17355 ft | 361 kts | 135° |
| 2026-04-28 17:17 | 50.50332 | 5.14978 | 17853 ft | 366 kts | 135° |
| 2026-04-28 17:17 | 50.48550 | 5.17758 | 18436 ft | 368 kts | 136° |
| 2026-04-28 17:17 | 50.46727 | 5.20606 | 18976 ft | 370 kts | 136° |
| 2026-04-28 17:17 | 50.44894 | 5.23466 | 19445 ft | 374 kts | 136° |
| 2026-04-28 17:18 | 50.43041 | 5.26356 | 19998 ft | 376 kts | 136° |
| 2026-04-28 17:18 | 50.41179 | 5.29255 | 20510 ft | 379 kts | 136° |
| 2026-04-28 17:18 | 50.39304 | 5.32173 | 20993 ft | 382 kts | 136° |
| 2026-04-28 17:18 | 50.37405 | 5.35124 | 21432 ft | 386 kts | 136° |
| 2026-04-28 17:19 | 50.35490 | 5.38094 | 21947 ft | 388 kts | 136° |
| 2026-04-28 17:19 | 50.33561 | 5.41081 | 22425 ft | 392 kts | 136° |
| 2026-04-28 17:19 | 50.31608 | 5.44100 | 22878 ft | 396 kts | 136° |
| 2026-04-28 17:19 | 50.29645 | 5.47131 | 23324 ft | 399 kts | 137° |
| 2026-04-28 17:20 | 50.27664 | 5.50192 | 23769 ft | 402 kts | 138° |
| 2026-04-28 17:20 | 50.26341 | 5.52233 | 23992 ft | 404 kts | 137° |
| 2026-04-28 17:20 | 50.23635 | 5.56398 | 24375 ft | 412 kts | 139° |
| 2026-04-28 17:20 | 50.21584 | 5.59547 | 24694 ft | 416 kts | 138° |
| 2026-04-28 17:21 | 50.19510 | 5.62738 | 25042 ft | 419 kts | 137° |
| 2026-04-28 17:21 | 50.17433 | 5.65932 | 25392 ft | 421 kts | 137° |
| 2026-04-28 17:21 | 50.15339 | 5.69146 | 25745 ft | 424 kts | 138° |
| 2026-04-28 17:22 | 50.10647 | 5.74610 | 26409 ft | 423 kts | 152° |
| 2026-04-28 17:22 | 50.08078 | 5.76898 | 26739 ft | 426 kts | 153° |
| 2026-04-28 17:22 | 50.05499 | 5.79188 | 27057 ft | 428 kts | 153° |
| 2026-04-28 17:23 | 50.00294 | 5.83802 | 27671 ft | 433 kts | 153° |
| 2026-04-28 17:23 | 49.97672 | 5.86122 | 27949 ft | 436 kts | 153° |
| 2026-04-28 17:23 | 49.95022 | 5.88466 | 28250 ft | 438 kts | 153° |
| 2026-04-28 17:23 | 49.92370 | 5.90811 | 28546 ft | 440 kts | 154° |
| 2026-04-28 17:24 | 49.89739 | 5.93133 | 28797 ft | 443 kts | 154° |
| 2026-04-28 17:24 | 49.87007 | 5.95538 | 29076 ft | 446 kts | 154° |
| 2026-04-28 17:24 | 49.84340 | 5.97880 | 29336 ft | 448 kts | 154° |
| 2026-04-28 17:24 | 49.81564 | 6.00309 | 29609 ft | 450 kts | 154° |
| 2026-04-28 17:25 | 49.78897 | 6.02641 | 29870 ft | 452 kts | 154° |
| 2026-04-28 17:25 | 49.73356 | 6.07484 | 30348 ft | 455 kts | 154° |
| 2026-04-28 17:25 | 49.70594 | 6.09894 | 30578 ft | 456 kts | 155° |
| 2026-04-28 17:26 | 49.67865 | 6.12274 | 30786 ft | 458 kts | 155° |
| 2026-04-28 17:26 | 49.65087 | 6.14694 | 30993 ft | 458 kts | 155° |
| 2026-04-28 17:26 | 49.62320 | 6.17099 | 31077 ft | 457 kts | 155° |
| 2026-04-28 17:26 | 49.59546 | 6.19508 | 31313 ft | 457 kts | 155° |
| 2026-04-28 17:27 | 49.56776 | 6.21914 | 31635 ft | 455 kts | 155° |
| 2026-04-28 17:27 | 49.54027 | 6.24300 | 31962 ft | 453 kts | 156° |
| 2026-04-28 17:27 | 49.51281 | 6.26678 | 32276 ft | 452 kts | 156° |
| 2026-04-28 17:27 | 49.48547 | 6.29044 | 32528 ft | 452 kts | 156° |
| 2026-04-28 17:28 | 49.46723 | 6.30622 | 32689 ft | 452 kts | 156° |
| 2026-04-28 17:28 | 49.41236 | 6.35344 | 33219 ft | 452 kts | 157° |
| 2026-04-28 17:28 | 49.38491 | 6.37701 | 33514 ft | 451 kts | 157° |
| 2026-04-28 17:29 | 49.35754 | 6.40049 | 33801 ft | 450 kts | 157° |
| 2026-04-28 17:29 | 49.33024 | 6.42386 | 34049 ft | 450 kts | 158° |
| 2026-04-28 17:29 | 49.30293 | 6.44725 | 34261 ft | 450 kts | 158° |